sensor_id;sensor_type;location;lat;lon;timestamp;P1;durP1;ratioP1;P2;durP2;ratioP2
48665;SDS011;34452;50.796;4.994;2023-12-20T00:01:24;16.88;;;3.38;;
48665;SDS011;34452;50.796;4.994;2023-12-20T00:03:50;13.90;;;2.30;;
48665;SDS011;34452;50.796;4.994;2023-12-20T00:06:16;15.43;;;3.35;;
48665;SDS011;34452;50.796;4.994;2023-12-20T00:08:42;9.48;;;2.30;;
48665;SDS011;34452;50.796;4.994;2023-12-20T00:11:09;16.02;;;2.63;;
48665;SDS011;34452;50.796;4.994;2023-12-20T00:13:35;18.77;;;3.90;;
48665;SDS011;34452;50.796;4.994;2023-12-20T00:16:00;16.45;;;2.50;;
48665;SDS011;34452;50.796;4.994;2023-12-20T00:18:26;15.18;;;2.97;;
48665;SDS011;34452;50.796;4.994;2023-12-20T00:20:52;12.27;;;2.70;;
48665;SDS011;34452;50.796;4.994;2023-12-20T00:23:18;12.65;;;3.13;;
48665;SDS011;34452;50.796;4.994;2023-12-20T00:25:43;17.00;;;2.17;;
48665;SDS011;34452;50.796;4.994;2023-12-20T00:28:09;17.48;;;2.30;;
48665;SDS011;34452;50.796;4.994;2023-12-20T00:30:35;17.20;;;3.05;;
48665;SDS011;34452;50.796;4.994;2023-12-20T00:33:01;19.75;;;3.42;;
48665;SDS011;34452;50.796;4.994;2023-12-20T00:35:27;17.52;;;2.72;;
48665;SDS011;34452;50.796;4.994;2023-12-20T00:37:53;15.88;;;2.40;;
48665;SDS011;34452;50.796;4.994;2023-12-20T00:40:19;14.05;;;2.40;;
48665;SDS011;34452;50.796;4.994;2023-12-20T00:42:45;13.05;;;3.00;;
48665;SDS011;34452;50.796;4.994;2023-12-20T00:45:12;12.38;;;2.30;;
48665;SDS011;34452;50.796;4.994;2023-12-20T00:47:38;13.40;;;2.53;;
48665;SDS011;34452;50.796;4.994;2023-12-20T00:50:04;11.02;;;2.20;;
48665;SDS011;34452;50.796;4.994;2023-12-20T00:54:56;11.75;;;2.30;;
48665;SDS011;34452;50.796;4.994;2023-12-20T00:57:21;12.38;;;2.13;;
48665;SDS011;34452;50.796;4.994;2023-12-20T00:59:47;6.72;;;1.88;;
48665;SDS011;34452;50.796;4.994;2023-12-20T01:02:13;12.32;;;2.13;;
48665;SDS011;34452;50.796;4.994;2023-12-20T01:04:39;10.32;;;2.22;;
48665;SDS011;34452;50.796;4.994;2023-12-20T01:07:04;11.05;;;1.98;;
48665;SDS011;34452;50.796;4.994;2023-12-20T01:09:30;15.85;;;2.13;;
48665;SDS011;34452;50.796;4.994;2023-12-20T01:11:56;16.67;;;2.92;;
48665;SDS011;34452;50.796;4.994;2023-12-20T01:14:21;16.77;;;2.33;;
48665;SDS011;34452;50.796;4.994;2023-12-20T01:16:47;13.05;;;3.00;;
48665;SDS011;34452;50.796;4.994;2023-12-20T01:19:13;6.28;;;1.58;;
48665;SDS011;34452;50.796;4.994;2023-12-20T01:21:40;10.38;;;2.13;;
48665;SDS011;34452;50.796;4.994;2023-12-20T01:24:05;18.15;;;2.85;;
48665;SDS011;34452;50.796;4.994;2023-12-20T01:26:31;16.05;;;2.70;;
48665;SDS011;34452;50.796;4.994;2023-12-20T01:28:57;10.55;;;1.67;;
48665;SDS011;34452;50.796;4.994;2023-12-20T01:31:23;15.05;;;2.28;;
48665;SDS011;34452;50.796;4.994;2023-12-20T01:33:49;7.40;;;2.05;;
48665;SDS011;34452;50.796;4.994;2023-12-20T01:36:14;11.95;;;2.63;;
48665;SDS011;34452;50.796;4.994;2023-12-20T01:38:40;10.85;;;2.25;;
48665;SDS011;34452;50.796;4.994;2023-12-20T01:41:06;9.68;;;2.10;;
48665;SDS011;34452;50.796;4.994;2023-12-20T01:43:32;14.10;;;2.28;;
48665;SDS011;34452;50.796;4.994;2023-12-20T01:45:58;11.48;;;2.38;;
48665;SDS011;34452;50.796;4.994;2023-12-20T01:50:51;10.15;;;1.80;;
48665;SDS011;34452;50.796;4.994;2023-12-20T01:53:17;7.70;;;1.65;;
48665;SDS011;34452;50.796;4.994;2023-12-20T01:55:46;10.95;;;2.10;;
48665;SDS011;34452;50.796;4.994;2023-12-20T01:58:15;14.07;;;2.63;;
48665;SDS011;34452;50.796;4.994;2023-12-20T02:00:42;16.23;;;2.28;;
48665;SDS011;34452;50.796;4.994;2023-12-20T02:03:08;12.90;;;2.22;;
48665;SDS011;34452;50.796;4.994;2023-12-20T02:05:34;13.45;;;2.20;;
48665;SDS011;34452;50.796;4.994;2023-12-20T02:08:02;23.73;;;4.43;;
48665;SDS011;34452;50.796;4.994;2023-12-20T02:10:28;9.85;;;2.50;;
48665;SDS011;34452;50.796;4.994;2023-12-20T02:12:54;5.97;;;2.03;;
48665;SDS011;34452;50.796;4.994;2023-12-20T02:15:20;8.95;;;2.05;;
48665;SDS011;34452;50.796;4.994;2023-12-20T02:17:46;14.13;;;2.53;;
48665;SDS011;34452;50.796;4.994;2023-12-20T02:20:13;12.52;;;2.95;;
48665;SDS011;34452;50.796;4.994;2023-12-20T02:22:39;14.23;;;2.33;;
48665;SDS011;34452;50.796;4.994;2023-12-20T02:25:05;7.68;;;2.65;;
48665;SDS011;34452;50.796;4.994;2023-12-20T02:27:31;14.82;;;2.50;;
48665;SDS011;34452;50.796;4.994;2023-12-20T02:29:57;14.98;;;2.65;;
48665;SDS011;34452;50.796;4.994;2023-12-20T02:32:23;18.65;;;3.25;;
48665;SDS011;34452;50.796;4.994;2023-12-20T02:34:54;12.73;;;2.92;;
48665;SDS011;34452;50.796;4.994;2023-12-20T02:37:20;10.75;;;2.35;;
48665;SDS011;34452;50.796;4.994;2023-12-20T02:39:46;17.13;;;2.88;;
48665;SDS011;34452;50.796;4.994;2023-12-20T02:42:12;17.92;;;2.90;;
48665;SDS011;34452;50.796;4.994;2023-12-20T02:44:38;17.85;;;2.78;;
48665;SDS011;34452;50.796;4.994;2023-12-20T02:47:04;11.85;;;2.55;;
48665;SDS011;34452;50.796;4.994;2023-12-20T02:49:30;15.57;;;2.58;;
48665;SDS011;34452;50.796;4.994;2023-12-20T02:51:56;15.82;;;2.92;;
48665;SDS011;34452;50.796;4.994;2023-12-20T02:54:21;18.50;;;3.38;;
48665;SDS011;34452;50.796;4.994;2023-12-20T02:56:47;14.40;;;3.47;;
48665;SDS011;34452;50.796;4.994;2023-12-20T02:59:13;12.70;;;3.03;;
48665;SDS011;34452;50.796;4.994;2023-12-20T03:01:44;16.77;;;3.22;;
48665;SDS011;34452;50.796;4.994;2023-12-20T03:04:11;16.63;;;3.22;;
48665;SDS011;34452;50.796;4.994;2023-12-20T03:09:03;20.17;;;3.58;;
48665;SDS011;34452;50.796;4.994;2023-12-20T03:13:55;22.33;;;3.40;;
48665;SDS011;34452;50.796;4.994;2023-12-20T03:18:46;19.23;;;3.85;;
48665;SDS011;34452;50.796;4.994;2023-12-20T03:21:12;18.67;;;3.30;;
48665;SDS011;34452;50.796;4.994;2023-12-20T03:23:38;21.73;;;3.80;;
48665;SDS011;34452;50.796;4.994;2023-12-20T03:26:06;18.95;;;4.13;;
48665;SDS011;34452;50.796;4.994;2023-12-20T03:28:33;15.23;;;3.67;;
48665;SDS011;34452;50.796;4.994;2023-12-20T03:30:59;23.42;;;3.53;;
48665;SDS011;34452;50.796;4.994;2023-12-20T03:33:25;20.27;;;3.72;;
48665;SDS011;34452;50.796;4.994;2023-12-20T03:35:50;17.98;;;3.33;;
48665;SDS011;34452;50.796;4.994;2023-12-20T03:38:16;24.38;;;4.38;;
48665;SDS011;34452;50.796;4.994;2023-12-20T03:40:42;15.70;;;4.32;;
48665;SDS011;34452;50.796;4.994;2023-12-20T03:43:08;23.67;;;4.68;;
48665;SDS011;34452;50.796;4.994;2023-12-20T03:45:34;17.83;;;4.15;;
48665;SDS011;34452;50.796;4.994;2023-12-20T03:47:59;22.63;;;3.75;;
48665;SDS011;34452;50.796;4.994;2023-12-20T03:50:25;24.00;;;4.78;;
48665;SDS011;34452;50.796;4.994;2023-12-20T03:55:17;22.00;;;4.43;;
48665;SDS011;34452;50.796;4.994;2023-12-20T03:57:43;19.80;;;4.38;;
48665;SDS011;34452;50.796;4.994;2023-12-20T04:00:09;19.70;;;4.57;;
48665;SDS011;34452;50.796;4.994;2023-12-20T04:05:01;22.52;;;5.15;;
48665;SDS011;34452;50.796;4.994;2023-12-20T04:07:27;13.98;;;4.40;;
48665;SDS011;34452;50.796;4.994;2023-12-20T04:09:53;24.27;;;4.75;;
48665;SDS011;34452;50.796;4.994;2023-12-20T04:12:18;23.55;;;5.20;;
48665;SDS011;34452;50.796;4.994;2023-12-20T04:14:44;22.25;;;4.93;;
48665;SDS011;34452;50.796;4.994;2023-12-20T04:17:10;22.55;;;5.30;;
48665;SDS011;34452;50.796;4.994;2023-12-20T04:19:35;20.38;;;4.25;;
48665;SDS011;34452;50.796;4.994;2023-12-20T04:22:01;27.90;;;4.85;;
48665;SDS011;34452;50.796;4.994;2023-12-20T04:24:27;23.38;;;5.53;;
48665;SDS011;34452;50.796;4.994;2023-12-20T04:26:53;23.95;;;5.32;;
48665;SDS011;34452;50.796;4.994;2023-12-20T04:29:18;21.08;;;5.90;;
48665;SDS011;34452;50.796;4.994;2023-12-20T04:31:44;19.20;;;5.15;;
48665;SDS011;34452;50.796;4.994;2023-12-20T04:34:10;25.53;;;5.67;;
48665;SDS011;34452;50.796;4.994;2023-12-20T04:36:35;26.85;;;6.22;;
48665;SDS011;34452;50.796;4.994;2023-12-20T04:39:01;29.45;;;5.55;;
48665;SDS011;34452;50.796;4.994;2023-12-20T04:43:53;22.65;;;4.68;;
48665;SDS011;34452;50.796;4.994;2023-12-20T04:46:19;20.77;;;5.57;;
48665;SDS011;34452;50.796;4.994;2023-12-20T04:48:45;24.80;;;5.20;;
48665;SDS011;34452;50.796;4.994;2023-12-20T04:51:10;21.70;;;4.68;;
48665;SDS011;34452;50.796;4.994;2023-12-20T04:53:36;24.38;;;4.97;;
48665;SDS011;34452;50.796;4.994;2023-12-20T04:56:02;29.15;;;5.30;;
48665;SDS011;34452;50.796;4.994;2023-12-20T04:58:28;24.42;;;5.38;;
48665;SDS011;34452;50.796;4.994;2023-12-20T05:00:53;20.77;;;4.78;;
48665;SDS011;34452;50.796;4.994;2023-12-20T05:03:19;18.98;;;4.90;;
48665;SDS011;34452;50.796;4.994;2023-12-20T05:05:45;21.17;;;4.18;;
48665;SDS011;34452;50.796;4.994;2023-12-20T05:08:11;18.27;;;4.40;;
48665;SDS011;34452;50.796;4.994;2023-12-20T05:10:37;15.70;;;4.43;;
48665;SDS011;34452;50.796;4.994;2023-12-20T05:13:02;21.33;;;4.60;;
48665;SDS011;34452;50.796;4.994;2023-12-20T05:15:28;24.60;;;4.70;;
48665;SDS011;34452;50.796;4.994;2023-12-20T05:17:54;20.02;;;5.25;;
48665;SDS011;34452;50.796;4.994;2023-12-20T05:20:20;24.50;;;5.38;;
48665;SDS011;34452;50.796;4.994;2023-12-20T05:22:45;20.85;;;4.32;;
48665;SDS011;34452;50.796;4.994;2023-12-20T05:25:12;21.85;;;4.63;;
48665;SDS011;34452;50.796;4.994;2023-12-20T05:27:38;23.33;;;4.57;;
48665;SDS011;34452;50.796;4.994;2023-12-20T05:30:03;22.65;;;4.15;;
48665;SDS011;34452;50.796;4.994;2023-12-20T05:32:30;19.02;;;4.50;;
48665;SDS011;34452;50.796;4.994;2023-12-20T05:34:56;24.95;;;4.22;;
48665;SDS011;34452;50.796;4.994;2023-12-20T05:37:22;22.80;;;4.38;;
48665;SDS011;34452;50.796;4.994;2023-12-20T05:39:47;13.77;;;3.65;;
48665;SDS011;34452;50.796;4.994;2023-12-20T05:42:13;15.38;;;3.78;;
48665;SDS011;34452;50.796;4.994;2023-12-20T05:44:39;13.05;;;3.42;;
48665;SDS011;34452;50.796;4.994;2023-12-20T05:47:04;24.42;;;4.90;;
48665;SDS011;34452;50.796;4.994;2023-12-20T05:49:30;17.25;;;4.53;;
48665;SDS011;34452;50.796;4.994;2023-12-20T05:51:56;30.75;;;5.88;;
48665;SDS011;34452;50.796;4.994;2023-12-20T05:54:22;18.13;;;4.68;;
48665;SDS011;34452;50.796;4.994;2023-12-20T05:56:48;14.75;;;4.38;;
48665;SDS011;34452;50.796;4.994;2023-12-20T05:59:14;23.90;;;4.40;;
48665;SDS011;34452;50.796;4.994;2023-12-20T06:01:39;23.58;;;4.68;;
48665;SDS011;34452;50.796;4.994;2023-12-20T06:04:05;28.42;;;4.85;;
48665;SDS011;34452;50.796;4.994;2023-12-20T06:06:31;17.90;;;4.35;;
48665;SDS011;34452;50.796;4.994;2023-12-20T06:08:57;25.98;;;4.55;;
48665;SDS011;34452;50.796;4.994;2023-12-20T06:11:23;23.48;;;5.05;;
48665;SDS011;34452;50.796;4.994;2023-12-20T06:13:48;20.33;;;4.85;;
48665;SDS011;34452;50.796;4.994;2023-12-20T06:16:17;20.10;;;4.38;;
48665;SDS011;34452;50.796;4.994;2023-12-20T06:18:43;18.05;;;4.68;;
48665;SDS011;34452;50.796;4.994;2023-12-20T06:21:08;18.55;;;4.45;;
48665;SDS011;34452;50.796;4.994;2023-12-20T06:23:37;19.75;;;4.57;;
48665;SDS011;34452;50.796;4.994;2023-12-20T06:26:04;18.60;;;4.40;;
48665;SDS011;34452;50.796;4.994;2023-12-20T06:28:29;25.52;;;6.22;;
48665;SDS011;34452;50.796;4.994;2023-12-20T06:30:55;17.60;;;4.43;;
48665;SDS011;34452;50.796;4.994;2023-12-20T06:33:22;28.63;;;5.20;;
48665;SDS011;34452;50.796;4.994;2023-12-20T06:35:49;21.85;;;4.57;;
48665;SDS011;34452;50.796;4.994;2023-12-20T06:38:15;28.80;;;5.00;;
48665;SDS011;34452;50.796;4.994;2023-12-20T06:40:41;24.10;;;4.30;;
48665;SDS011;34452;50.796;4.994;2023-12-20T06:43:07;21.88;;;4.40;;
48665;SDS011;34452;50.796;4.994;2023-12-20T06:45:33;19.83;;;4.45;;
48665;SDS011;34452;50.796;4.994;2023-12-20T06:47:59;30.40;;;5.78;;
48665;SDS011;34452;50.796;4.994;2023-12-20T06:50:25;18.25;;;4.68;;
48665;SDS011;34452;50.796;4.994;2023-12-20T06:52:51;21.50;;;5.78;;
48665;SDS011;34452;50.796;4.994;2023-12-20T06:55:17;19.50;;;4.85;;
48665;SDS011;34452;50.796;4.994;2023-12-20T06:57:43;37.75;;;5.35;;
48665;SDS011;34452;50.796;4.994;2023-12-20T07:00:10;41.60;;;5.47;;
48665;SDS011;34452;50.796;4.994;2023-12-20T07:02:37;25.52;;;4.55;;
48665;SDS011;34452;50.796;4.994;2023-12-20T07:05:02;20.40;;;4.93;;
48665;SDS011;34452;50.796;4.994;2023-12-20T07:07:29;22.05;;;5.60;;
48665;SDS011;34452;50.796;4.994;2023-12-20T07:09:55;21.70;;;4.75;;
48665;SDS011;34452;50.796;4.994;2023-12-20T07:12:21;18.60;;;4.97;;
48665;SDS011;34452;50.796;4.994;2023-12-20T07:14:46;19.90;;;4.05;;
48665;SDS011;34452;50.796;4.994;2023-12-20T07:17:12;18.35;;;4.38;;
48665;SDS011;34452;50.796;4.994;2023-12-20T07:19:40;23.23;;;3.90;;
48665;SDS011;34452;50.796;4.994;2023-12-20T07:24:32;26.23;;;4.05;;
48665;SDS011;34452;50.796;4.994;2023-12-20T07:29:24;22.40;;;3.88;;
48665;SDS011;34452;50.796;4.994;2023-12-20T07:31:50;20.48;;;3.80;;
48665;SDS011;34452;50.796;4.994;2023-12-20T07:34:17;20.85;;;3.92;;
48665;SDS011;34452;50.796;4.994;2023-12-20T07:36:43;17.02;;;3.50;;
48665;SDS011;34452;50.796;4.994;2023-12-20T07:39:09;20.80;;;3.60;;
48665;SDS011;34452;50.796;4.994;2023-12-20T07:44:02;9.67;;;2.77;;
48665;SDS011;34452;50.796;4.994;2023-12-20T07:46:29;14.00;;;3.28;;
48665;SDS011;34452;50.796;4.994;2023-12-20T07:48:56;20.88;;;3.58;;
48665;SDS011;34452;50.796;4.994;2023-12-20T07:51:22;15.70;;;2.92;;
48665;SDS011;34452;50.796;4.994;2023-12-20T07:53:47;12.38;;;3.20;;
48665;SDS011;34452;50.796;4.994;2023-12-20T07:56:17;18.63;;;3.10;;
48665;SDS011;34452;50.796;4.994;2023-12-20T07:58:43;19.70;;;3.22;;
48665;SDS011;34452;50.796;4.994;2023-12-20T08:03:36;17.55;;;3.75;;
48665;SDS011;34452;50.796;4.994;2023-12-20T08:06:02;20.52;;;3.42;;
48665;SDS011;34452;50.796;4.994;2023-12-20T08:08:28;17.85;;;3.50;;
48665;SDS011;34452;50.796;4.994;2023-12-20T08:10:54;13.23;;;3.17;;
48665;SDS011;34452;50.796;4.994;2023-12-20T08:13:19;20.73;;;3.40;;
48665;SDS011;34452;50.796;4.994;2023-12-20T08:15:50;15.75;;;3.03;;
48665;SDS011;34452;50.796;4.994;2023-12-20T08:18:15;16.20;;;3.42;;
48665;SDS011;34452;50.796;4.994;2023-12-20T08:20:41;25.75;;;3.67;;
48665;SDS011;34452;50.796;4.994;2023-12-20T08:23:07;17.90;;;4.47;;
48665;SDS011;34452;50.796;4.994;2023-12-20T08:25:33;19.50;;;3.92;;
48665;SDS011;34452;50.796;4.994;2023-12-20T08:27:58;24.90;;;3.42;;
48665;SDS011;34452;50.796;4.994;2023-12-20T08:30:24;14.88;;;3.35;;
48665;SDS011;34452;50.796;4.994;2023-12-20T08:32:50;23.88;;;3.40;;
48665;SDS011;34452;50.796;4.994;2023-12-20T08:35:16;16.45;;;3.28;;
48665;SDS011;34452;50.796;4.994;2023-12-20T08:37:43;13.90;;;3.00;;
48665;SDS011;34452;50.796;4.994;2023-12-20T08:40:09;21.35;;;3.90;;
48665;SDS011;34452;50.796;4.994;2023-12-20T08:42:35;15.52;;;3.72;;
48665;SDS011;34452;50.796;4.994;2023-12-20T08:45:01;26.48;;;3.47;;
48665;SDS011;34452;50.796;4.994;2023-12-20T08:47:29;19.67;;;3.33;;
48665;SDS011;34452;50.796;4.994;2023-12-20T08:49:55;11.90;;;3.20;;
48665;SDS011;34452;50.796;4.994;2023-12-20T08:52:23;18.23;;;2.90;;
48665;SDS011;34452;50.796;4.994;2023-12-20T08:54:49;24.17;;;4.28;;
48665;SDS011;34452;50.796;4.994;2023-12-20T08:57:21;20.60;;;3.75;;
48665;SDS011;34452;50.796;4.994;2023-12-20T08:59:49;19.10;;;3.63;;
48665;SDS011;34452;50.796;4.994;2023-12-20T09:02:15;21.02;;;2.92;;
48665;SDS011;34452;50.796;4.994;2023-12-20T09:04:42;19.58;;;3.20;;
48665;SDS011;34452;50.796;4.994;2023-12-20T09:07:20;16.42;;;2.78;;
48665;SDS011;34452;50.796;4.994;2023-12-20T09:09:50;26.67;;;3.50;;
48665;SDS011;34452;50.796;4.994;2023-12-20T09:12:17;22.95;;;4.00;;
48665;SDS011;34452;50.796;4.994;2023-12-20T09:14:44;20.60;;;3.17;;
48665;SDS011;34452;50.796;4.994;2023-12-20T09:17:11;17.10;;;2.85;;
48665;SDS011;34452;50.796;4.994;2023-12-20T09:19:37;17.50;;;3.53;;
48665;SDS011;34452;50.796;4.994;2023-12-20T09:22:04;18.55;;;3.35;;
48665;SDS011;34452;50.796;4.994;2023-12-20T09:24:30;23.00;;;2.55;;
48665;SDS011;34452;50.796;4.994;2023-12-20T09:26:56;14.85;;;3.17;;
48665;SDS011;34452;50.796;4.994;2023-12-20T09:29:22;10.23;;;2.58;;
48665;SDS011;34452;50.796;4.994;2023-12-20T09:31:49;16.45;;;3.10;;
48665;SDS011;34452;50.796;4.994;2023-12-20T09:34:16;19.48;;;3.17;;
48665;SDS011;34452;50.796;4.994;2023-12-20T09:36:45;19.10;;;3.33;;
48665;SDS011;34452;50.796;4.994;2023-12-20T09:39:18;15.88;;;2.72;;
48665;SDS011;34452;50.796;4.994;2023-12-20T09:41:46;14.93;;;2.95;;
48665;SDS011;34452;50.796;4.994;2023-12-20T09:44:28;14.68;;;2.95;;
48665;SDS011;34452;50.796;4.994;2023-12-20T09:46:54;21.23;;;3.38;;
48665;SDS011;34452;50.796;4.994;2023-12-20T09:49:21;18.13;;;3.58;;
48665;SDS011;34452;50.796;4.994;2023-12-20T09:51:48;22.88;;;4.13;;
48665;SDS011;34452;50.796;4.994;2023-12-20T09:54:19;18.80;;;3.20;;
48665;SDS011;34452;50.796;4.994;2023-12-20T09:56:46;21.63;;;3.60;;
48665;SDS011;34452;50.796;4.994;2023-12-20T09:59:12;17.35;;;3.95;;
48665;SDS011;34452;50.796;4.994;2023-12-20T10:01:38;16.88;;;3.25;;
48665;SDS011;34452;50.796;4.994;2023-12-20T10:04:06;15.07;;;3.40;;
48665;SDS011;34452;50.796;4.994;2023-12-20T10:06:37;12.23;;;2.92;;
48665;SDS011;34452;50.796;4.994;2023-12-20T10:09:05;16.55;;;3.38;;
48665;SDS011;34452;50.796;4.994;2023-12-20T10:11:31;13.18;;;3.20;;
48665;SDS011;34452;50.796;4.994;2023-12-20T10:14:00;17.58;;;3.22;;
48665;SDS011;34452;50.796;4.994;2023-12-20T10:16:27;14.93;;;3.15;;
48665;SDS011;34452;50.796;4.994;2023-12-20T10:18:53;14.07;;;3.05;;
48665;SDS011;34452;50.796;4.994;2023-12-20T10:21:19;15.07;;;3.08;;
48665;SDS011;34452;50.796;4.994;2023-12-20T10:23:46;17.67;;;3.08;;
48665;SDS011;34452;50.796;4.994;2023-12-20T10:26:21;26.75;;;4.38;;
48665;SDS011;34452;50.796;4.994;2023-12-20T10:28:59;20.67;;;3.47;;
48665;SDS011;34452;50.796;4.994;2023-12-20T10:31:26;13.95;;;3.53;;
48665;SDS011;34452;50.796;4.994;2023-12-20T10:33:55;15.57;;;3.38;;
48665;SDS011;34452;50.796;4.994;2023-12-20T10:36:23;19.23;;;3.60;;
48665;SDS011;34452;50.796;4.994;2023-12-20T10:38:51;24.50;;;3.17;;
48665;SDS011;34452;50.796;4.994;2023-12-20T10:43:46;14.85;;;3.58;;
48665;SDS011;34452;50.796;4.994;2023-12-20T10:46:12;16.08;;;3.10;;
48665;SDS011;34452;50.796;4.994;2023-12-20T10:48:39;18.83;;;3.50;;
48665;SDS011;34452;50.796;4.994;2023-12-20T10:51:05;13.77;;;3.22;;
48665;SDS011;34452;50.796;4.994;2023-12-20T10:53:32;20.20;;;3.45;;
48665;SDS011;34452;50.796;4.994;2023-12-20T10:56:01;19.08;;;3.65;;
48665;SDS011;34452;50.796;4.994;2023-12-20T10:58:28;23.15;;;3.53;;
48665;SDS011;34452;50.796;4.994;2023-12-20T11:01:00;16.20;;;3.20;;
48665;SDS011;34452;50.796;4.994;2023-12-20T11:03:32;20.58;;;3.92;;
48665;SDS011;34452;50.796;4.994;2023-12-20T11:06:23;16.25;;;3.30;;
48665;SDS011;34452;50.796;4.994;2023-12-20T11:14:26;16.33;;;3.30;;
48665;SDS011;34452;50.796;4.994;2023-12-20T11:17:13;16.38;;;2.63;;
48665;SDS011;34452;50.796;4.994;2023-12-20T11:22:32;17.40;;;3.47;;
48665;SDS011;34452;50.796;4.994;2023-12-20T11:25:07;16.90;;;3.15;;
48665;SDS011;34452;50.796;4.994;2023-12-20T11:27:34;18.83;;;3.45;;
48665;SDS011;34452;50.796;4.994;2023-12-20T11:30:02;12.35;;;2.58;;
48665;SDS011;34452;50.796;4.994;2023-12-20T11:32:32;15.93;;;3.38;;
48665;SDS011;34452;50.796;4.994;2023-12-20T11:35:00;14.13;;;3.70;;
48665;SDS011;34452;50.796;4.994;2023-12-20T11:37:35;28.48;;;5.40;;
48665;SDS011;34452;50.796;4.994;2023-12-20T11:40:02;23.40;;;3.72;;
48665;SDS011;34452;50.796;4.994;2023-12-20T11:42:43;24.75;;;3.75;;
48665;SDS011;34452;50.796;4.994;2023-12-20T11:47:40;22.40;;;4.15;;
48665;SDS011;34452;50.796;4.994;2023-12-20T11:50:08;18.58;;;3.30;;
48665;SDS011;34452;50.796;4.994;2023-12-20T11:52:34;24.67;;;3.42;;
48665;SDS011;34452;50.796;4.994;2023-12-20T11:55:00;15.70;;;3.78;;
48665;SDS011;34452;50.796;4.994;2023-12-20T11:57:26;24.23;;;3.40;;
48665;SDS011;34452;50.796;4.994;2023-12-20T11:59:53;20.25;;;3.45;;
48665;SDS011;34452;50.796;4.994;2023-12-20T12:02:19;15.52;;;3.35;;
48665;SDS011;34452;50.796;4.994;2023-12-20T12:04:44;23.92;;;3.42;;
48665;SDS011;34452;50.796;4.994;2023-12-20T12:07:10;18.77;;;3.60;;
48665;SDS011;34452;50.796;4.994;2023-12-20T12:09:36;30.23;;;4.18;;
48665;SDS011;34452;50.796;4.994;2023-12-20T12:12:02;14.82;;;2.80;;
48665;SDS011;34452;50.796;4.994;2023-12-20T12:16:54;14.93;;;3.10;;
48665;SDS011;34452;50.796;4.994;2023-12-20T12:19:23;18.98;;;3.30;;
48665;SDS011;34452;50.796;4.994;2023-12-20T12:21:50;15.73;;;2.85;;
48665;SDS011;34452;50.796;4.994;2023-12-20T12:24:19;16.63;;;4.32;;
48665;SDS011;34452;50.796;4.994;2023-12-20T12:26:52;15.38;;;2.90;;
48665;SDS011;34452;50.796;4.994;2023-12-20T12:29:17;17.58;;;3.10;;
48665;SDS011;34452;50.796;4.994;2023-12-20T12:31:43;21.85;;;4.07;;
48665;SDS011;34452;50.796;4.994;2023-12-20T12:34:09;21.17;;;4.47;;
48665;SDS011;34452;50.796;4.994;2023-12-20T12:36:35;17.00;;;4.13;;
48665;SDS011;34452;50.796;4.994;2023-12-20T12:39:04;21.45;;;3.83;;
48665;SDS011;34452;50.796;4.994;2023-12-20T12:41:30;18.00;;;4.13;;
48665;SDS011;34452;50.796;4.994;2023-12-20T12:43:56;18.02;;;3.70;;
48665;SDS011;34452;50.796;4.994;2023-12-20T12:46:22;15.55;;;3.35;;
48665;SDS011;34452;50.796;4.994;2023-12-20T12:48:48;17.83;;;3.85;;
48665;SDS011;34452;50.796;4.994;2023-12-20T12:51:15;20.42;;;3.70;;
48665;SDS011;34452;50.796;4.994;2023-12-20T12:53:41;22.58;;;4.65;;
48665;SDS011;34452;50.796;4.994;2023-12-20T12:56:07;24.45;;;3.38;;
48665;SDS011;34452;50.796;4.994;2023-12-20T12:58:33;18.77;;;4.47;;
48665;SDS011;34452;50.796;4.994;2023-12-20T13:00:59;22.73;;;3.50;;
48665;SDS011;34452;50.796;4.994;2023-12-20T13:03:25;18.55;;;3.97;;
48665;SDS011;34452;50.796;4.994;2023-12-20T13:05:51;23.27;;;4.40;;
48665;SDS011;34452;50.796;4.994;2023-12-20T13:08:17;16.67;;;3.15;;
48665;SDS011;34452;50.796;4.994;2023-12-20T13:10:43;13.80;;;3.08;;
48665;SDS011;34452;50.796;4.994;2023-12-20T13:13:08;23.90;;;3.60;;
48665;SDS011;34452;50.796;4.994;2023-12-20T13:15:34;12.30;;;2.42;;
48665;SDS011;34452;50.796;4.994;2023-12-20T13:18:00;15.55;;;3.33;;
48665;SDS011;34452;50.796;4.994;2023-12-20T13:20:26;12.65;;;2.42;;
48665;SDS011;34452;50.796;4.994;2023-12-20T13:22:52;22.38;;;4.43;;
48665;SDS011;34452;50.796;4.994;2023-12-20T13:25:17;19.42;;;3.70;;
48665;SDS011;34452;50.796;4.994;2023-12-20T13:27:43;24.00;;;3.03;;
48665;SDS011;34452;50.796;4.994;2023-12-20T13:30:09;22.42;;;3.65;;
48665;SDS011;34452;50.796;4.994;2023-12-20T13:32:35;14.95;;;4.15;;
48665;SDS011;34452;50.796;4.994;2023-12-20T13:35:01;19.75;;;3.72;;
48665;SDS011;34452;50.796;4.994;2023-12-20T13:37:26;19.17;;;3.72;;
48665;SDS011;34452;50.796;4.994;2023-12-20T13:39:52;16.98;;;3.75;;
48665;SDS011;34452;50.796;4.994;2023-12-20T13:42:18;19.95;;;3.70;;
48665;SDS011;34452;50.796;4.994;2023-12-20T13:44:45;16.63;;;3.17;;
48665;SDS011;34452;50.796;4.994;2023-12-20T13:49:37;16.33;;;3.47;;
48665;SDS011;34452;50.796;4.994;2023-12-20T13:52:03;23.88;;;4.13;;
48665;SDS011;34452;50.796;4.994;2023-12-20T13:54:29;15.05;;;3.30;;
48665;SDS011;34452;50.796;4.994;2023-12-20T13:56:55;26.90;;;4.03;;
48665;SDS011;34452;50.796;4.994;2023-12-20T13:59:22;16.98;;;3.00;;
48665;SDS011;34452;50.796;4.994;2023-12-20T14:01:48;18.40;;;4.05;;
48665;SDS011;34452;50.796;4.994;2023-12-20T14:04:15;17.73;;;3.65;;
48665;SDS011;34452;50.796;4.994;2023-12-20T14:06:41;28.75;;;4.53;;
48665;SDS011;34452;50.796;4.994;2023-12-20T14:09:07;17.92;;;4.20;;
48665;SDS011;34452;50.796;4.994;2023-12-20T14:11:33;24.20;;;3.70;;
48665;SDS011;34452;50.796;4.994;2023-12-20T14:13:59;18.60;;;3.70;;
48665;SDS011;34452;50.796;4.994;2023-12-20T14:16:26;21.75;;;4.18;;
48665;SDS011;34452;50.796;4.994;2023-12-20T14:18:52;16.45;;;3.83;;
48665;SDS011;34452;50.796;4.994;2023-12-20T14:21:22;16.52;;;3.50;;
48665;SDS011;34452;50.796;4.994;2023-12-20T14:23:49;20.13;;;3.80;;
48665;SDS011;34452;50.796;4.994;2023-12-20T14:26:14;17.23;;;3.42;;
48665;SDS011;34452;50.796;4.994;2023-12-20T14:28:41;15.45;;;3.20;;
48665;SDS011;34452;50.796;4.994;2023-12-20T14:31:07;32.97;;;4.32;;
48665;SDS011;34452;50.796;4.994;2023-12-20T14:35:59;17.27;;;3.50;;
48665;SDS011;34452;50.796;4.994;2023-12-20T14:38:25;16.40;;;2.80;;
48665;SDS011;34452;50.796;4.994;2023-12-20T14:40:51;14.45;;;3.47;;
48665;SDS011;34452;50.796;4.994;2023-12-20T14:43:16;18.70;;;3.67;;
48665;SDS011;34452;50.796;4.994;2023-12-20T14:45:42;17.73;;;4.13;;
48665;SDS011;34452;50.796;4.994;2023-12-20T14:48:09;14.40;;;3.13;;
48665;SDS011;34452;50.796;4.994;2023-12-20T14:50:34;18.02;;;3.53;;
48665;SDS011;34452;50.796;4.994;2023-12-20T14:53:01;14.93;;;3.13;;
48665;SDS011;34452;50.796;4.994;2023-12-20T14:55:27;20.00;;;3.65;;
48665;SDS011;34452;50.796;4.994;2023-12-20T14:57:55;21.23;;;3.53;;
48665;SDS011;34452;50.796;4.994;2023-12-20T15:00:20;19.15;;;3.50;;
48665;SDS011;34452;50.796;4.994;2023-12-20T15:02:46;18.85;;;3.92;;
48665;SDS011;34452;50.796;4.994;2023-12-20T15:05:12;20.42;;;3.83;;
48665;SDS011;34452;50.796;4.994;2023-12-20T15:07:40;20.83;;;4.13;;
48665;SDS011;34452;50.796;4.994;2023-12-20T15:10:05;18.73;;;4.15;;
48665;SDS011;34452;50.796;4.994;2023-12-20T15:12:31;23.33;;;4.25;;
48665;SDS011;34452;50.796;4.994;2023-12-20T15:14:59;23.30;;;3.75;;
48665;SDS011;34452;50.796;4.994;2023-12-20T15:17:25;28.48;;;4.47;;
48665;SDS011;34452;50.796;4.994;2023-12-20T15:19:51;20.85;;;3.58;;
48665;SDS011;34452;50.796;4.994;2023-12-20T15:22:18;17.48;;;3.45;;